Time;durP1;ratioP1;P1;durP2;ratioP2;P2;SDS_P1;SDS_P2;PMS_P1;PMS_P2;Temp;Humidity;BMP_temperature;BMP_pressure;BME280_temperature;BME280_humidity;BME280_pressure;Samples;Min_cycle;Max_cycle;Signal;HPM_P1;HPM_P2
2021/01/30 00:00:43;;;;;;;54.78;51.05;;;;;;;13.77;42.17;98281.47;4380899;32;34287;-93
2021/01/30 00:03:13;;;;;;;54.25;51.08;;;;;;;13.24;43.52;98284.03;4392775;32;35025;-93
2021/01/30 00:05:41;;;;;;;53.72;50.42;;;;;;;12.59;45.19;98285.56;4380360;32;35489;-92
2021/01/30 00:08:12;;;;;;;;;;;;;;;12.76;44.91;98291.50;4393568;32;33823;-92
2021/01/30 00:10:40;;;;;;;54.38;51.00;;;;;;;12.55;45.47;98281.47;4380706;32;33981;-92
2021/01/30 00:13:08;;;;;;;53.92;50.75;;;;;;;13.72;42.68;98280.09;4392690;32;34816;-91
2021/01/30 00:15:37;;;;;;;53.40;50.38;;;;;;;13.40;43.63;98277.84;4380917;32;34096;-92
2021/01/30 00:18:06;;;;;;;52.20;49.20;;;;;;;12.37;46.45;98279.03;4398657;32;33469;-92
2021/01/30 00:20:36;;;;;;;52.15;49.15;;;;;;;13.75;43.15;98274.66;4386792;32;33929;-92
2021/01/30 00:23:06;;;;;;;53.30;50.12;;;;;;;13.45;43.57;98273.16;4400193;32;34578;-91
2021/01/30 00:25:35;;;;;;;53.42;50.33;;;;;;;14.44;41.10;98276.91;4399639;32;34902;-91
2021/01/30 00:28:06;;;;;;;52.90;49.85;;;;;;;13.40;43.05;98293.53;4386856;32;32434;-93
2021/01/30 00:30:34;;;;;;;53.50;50.40;;;;;;;14.24;41.38;98292.28;4381049;32;35027;-91
2021/01/30 00:33:03;;;;;;;52.67;49.50;;;;;;;14.44;40.83;98301.37;4380501;32;35844;-90
2021/01/30 00:35:34;;;;;;;52.67;49.55;;;;;;;14.13;41.35;98298.25;4394059;32;33782;-90
2021/01/30 00:38:02;;;;;;;53.20;50.17;;;;;;;13.95;41.93;98297.72;4392880;32;33975;-91
2021/01/30 00:40:29;;;;;;;51.95;49.05;;;;;;;14.75;40.09;98301.84;4380587;32;35400;-91
2021/01/30 00:42:59;;;;;;;52.45;49.55;;;;;;;13.44;43.37;98301.09;4379194;32;34184;-92
2021/01/30 00:45:27;;;;;;;52.33;49.42;;;;;;;14.96;39.67;98312.59;4393406;32;34779;-91
2021/01/30 00:47:56;;;;;;;52.47;49.47;;;;;;;15.08;39.38;98313.50;4380330;32;33985;-92
2021/01/30 00:50:25;;;;;;;51.78;48.87;;;;;;;14.95;39.53;98315.31;4393250;32;34640;-93
2021/01/30 00:52:53;;;;;;;52.40;49.40;;;;;;;14.87;39.76;98313.25;4380912;32;33574;-92
2021/01/30 00:55:22;;;;;;;52.90;49.80;;;;;;;15.10;39.36;98310.75;4380400;32;34585;-92
2021/01/30 00:57:51;;;;;;;52.70;49.35;;;;;;;13.97;41.79;98313.31;4380434;32;34398;-91
2021/01/30 01:00:25;;;;;;;52.22;49.20;;;;;;;14.68;40.23;98300.63;4380341;32;34493;-91
2021/01/30 01:02:55;;;;;;;53.33;50.33;;;;;;;14.52;40.57;98311.31;4392449;32;34325;-91
2021/01/30 01:05:24;;;;;;;52.65;49.65;;;;;;;14.93;39.83;98318.06;4392464;32;34787;-90
2021/01/30 01:07:54;;;;;;;52.22;49.20;;;;;;;14.79;40.25;98324.28;4380315;32;34378;-91
2021/01/30 01:10:22;;;;;;;51.90;49.00;;;;;;;15.01;39.80;98323.59;4367861;32;34333;-92
2021/01/30 01:12:51;;;;;;;51.58;48.58;;;;;;;15.22;39.33;98317.72;4379870;32;34318;-90
2021/01/30 01:15:20;;;;;;;51.35;48.45;;;;;;;15.24;39.30;98317.63;4392762;32;33042;-91
2021/01/30 01:17:48;;;;;;;52.65;49.75;;;;;;;15.22;39.13;98317.72;4379844;32;33782;-90
2021/01/30 01:20:19;;;;;;;52.28;49.38;;;;;;;14.56;40.53;98312.78;4392644;32;33622;-91
2021/01/30 01:22:48;;;;;;;52.17;49.17;;;;;;;15.22;39.30;98314.28;4392752;32;33754;-91
2021/01/30 01:25:19;;;;;;;52.05;49.10;;;;;;;15.44;38.64;98308.28;4379604;32;34621;-91
2021/01/30 01:27:48;;;;;;;51.67;48.58;;;;;;;15.56;38.45;98302.13;4367745;32;34258;-92
2021/01/30 01:30:17;;;;;;;52.45;49.45;;;;;;;15.49;38.57;98301.75;4392533;32;34848;-92
2021/01/30 01:32:48;;;;;;;;;;;;;;;15.55;38.43;98303.06;4380526;32;34357;-92
2021/01/30 01:35:18;;;;;;;52.28;49.28;;;;;;;15.98;37.42;98296.41;4392980;32;33692;-91
2021/01/30 01:37:46;;;;;;;51.15;48.10;;;;;;;14.57;40.20;98305.72;4378987;32;34007;-91
2021/01/30 01:40:16;;;;;;;50.72;47.95;;;;;;;15.57;38.12;98303.81;4367416;32;35229;-91
2021/01/30 01:42:44;;;;;;;51.10;48.28;;;;;;;15.68;37.89;98305.62;4379527;32;33909;-92
2021/01/30 01:45:13;;;;;;;50.15;47.40;;;;;;;15.62;37.87;98301.69;4392453;32;34498;-92
2021/01/30 01:47:43;;;;;;;51.53;48.67;;;;;;;15.19;38.86;98303.03;4392468;32;33672;-91
2021/01/30 01:50:30;;;;;;;51.37;48.58;;;;;;;14.56;40.12;98298.81;4392375;32;33771;-91
2021/01/30 01:53:13;;;;;;;51.22;48.40;;;;;;;13.82;41.85;98308.16;4379941;32;34797;-93
2021/01/30 01:55:46;;;;;;;51.80;48.83;;;;;;;15.07;39.24;98303.94;4393726;32;34079;-91
2021/01/30 01:58:16;;;;;;;50.58;47.67;;;;;;;15.05;39.12;98300.59;4369860;32;33751;-91
2021/01/30 02:00:47;;;;;;;51.30;48.50;;;;;;;15.45;38.12;98302.06;4381852;32;34333;-92
2021/01/30 02:03:20;;;;;;;52.30;49.40;;;;;;;14.56;40.01;98297.03;4394440;32;33851;-92
2021/01/30 02:05:48;;;;;;;51.33;48.53;;;;;;;14.41;40.27;98300.72;4381741;32;34994;-91
2021/01/30 02:08:20;;;;;;;51.00;48.30;;;;;;;15.36;38.20;98304.44;4381914;32;33658;-92
2021/01/30 02:10:50;;;;;;;51.57;48.57;;;;;;;15.00;38.95;98315.84;4394394;32;33588;-93
2021/01/30 02:13:21;;;;;;;51.55;48.75;;;;;;;14.50;39.68;98313.19;4381814;32;34890;-92
2021/01/30 02:15:53;;;;;;;50.03;47.33;;;;;;;14.81;39.37;98311.06;4381860;32;35029;-93
2021/01/30 02:18:45;;;;;;;51.45;48.55;;;;;;;14.82;39.27;98312.72;4381783;32;35269;-91
2021/01/30 02:21:22;;;;;;;50.95;48.10;;;;;;;14.02;41.44;98319.91;4405801;32;34286;-91
2021/01/30 02:23:57;;;;;;;53.47;50.38;;;;;;;13.51;42.07;98319.84;4393804;32;34256;-90
2021/01/30 02:26:49;;;;;;;51.45;48.55;;;;;;;14.66;39.78;98316.44;4393671;32;34756;-91
2021/01/30 02:29:47;;;;;;;50.78;47.88;;;;;;;14.92;39.14;98323.38;4393906;32;34022;-92
2021/01/30 02:32:24;;;;;;;51.63;48.83;;;;;;;15.09;38.60;98333.53;4380487;32;34529;-92
2021/01/30 02:35:08;;;;;;;50.95;48.05;;;;;;;15.05;38.68;98328.59;4406519;32;33270;-92
2021/01/30 02:37:45;;;;;;;51.72;48.75;;;;;;;14.91;38.82;98327.81;4406095;32;34945;-92
2021/01/30 02:40:17;;;;;;;51.78;48.97;;;;;;;15.51;37.62;98333.94;4381323;32;33656;-92
2021/01/30 02:42:58;;;;;;;50.97;48.17;;;;;;;14.38;40.02;98335.84;4381197;32;34670;-92
2021/01/30 02:45:31;;;;;;;51.25;48.45;;;;;;;14.33;40.08;98337.94;4393777;32;34196;-92
2021/01/30 02:48:09;;;;;;;50.85;48.00;;;;;;;14.32;40.28;98346.75;4381096;32;34067;-92
2021/01/30 02:50:45;;;;;;;51.40;48.60;;;;;;;14.69;39.52;98349.44;4381164;32;34188;-92
2021/01/30 02:53:16;;;;;;;51.97;48.97;;;;;;;13.89;41.11;98341.81;4393692;32;34322;-91
2021/01/30 02:55:44;;;;;;;51.15;48.35;;;;;;;13.68;41.61;98344.88;4381257;32;35585;-92
2021/01/30 02:58:13;;;;;;;52.15;49.35;;;;;;;13.99;40.90;98343.69;4393802;32;33804;-92
2021/01/30 03:00:42;;;;;;;51.30;47.97;;;;;;;14.40;39.83;98343.59;4368953;32;32456;-93
2021/01/30 03:03:12;;;;;;;;;;;;;;;14.34;39.55;98350.94;4394013;32;34652;-92
2021/01/30 03:05:44;;;;;;;51.42;48.53;;;;;;;13.70;41.12;98350.88;4393136;32;33225;-93
2021/01/30 03:08:34;;;;;;;51.20;48.33;;;;;;;13.46;41.42;98351.53;4381119;32;34194;-92
2021/01/30 03:11:15;;;;;;;52.42;49.35;;;;;;;13.47;41.46;98355.00;4393415;32;34050;-91
2021/01/30 03:13:52;;;;;;;54.03;50.65;;;;;;;12.88;42.75;98350.81;4393300;32;34528;-91
2021/01/30 03:16:23;;;;;;;53.35;49.95;;;;;;;13.02;42.28;98350.81;4394161;32;33776;-92
2021/01/30 03:18:56;;;;;;;;;;;;;;;12.98;42.11;98359.78;4393808;32;34360;-92
2021/01/30 03:21:26;;;;;;;52.62;49.42;;;;;;;12.94;42.35;98353.06;4393644;32;32157;-92
2021/01/30 03:23:54;;;;;;;52.30;49.28;;;;;;;13.55;40.75;98357.97;4380779;32;34748;-91
2021/01/30 03:26:24;;;;;;;52.42;49.42;;;;;;;12.90;41.93;98363.81;4393563;32;34545;-91
2021/01/30 03:28:51;;;;;;;52.53;49.42;;;;;;;13.62;40.10;98367.06;4392997;32;32756;-91
2021/01/30 03:31:19;;;;;;;51.58;48.60;;;;;;;13.91;39.30;98361.72;4380475;32;35211;-92
2021/01/30 03:33:47;;;;;;;52.50;49.55;;;;;;;12.87;41.21;98359.63;4380976;32;34133;-92
2021/01/30 03:36:16;;;;;;;53.40;50.25;;;;;;;12.62;41.88;98358.53;4380833;32;34487;-92
2021/01/30 03:38:44;;;;;;;54.70;51.15;;;;;;;12.25;42.35;98354.69;4393103;32;34318;-93
2021/01/30 03:41:12;;;;;;;53.63;50.15;;;;;;;12.02;42.92;98365.56;4380665;32;32116;-91
2021/01/30 03:43:40;;;;;;;52.85;49.88;;;;;;;12.41;41.84;98362.44;4393432;32;33799;-91
2021/01/30 03:46:08;;;;;;;52.22;49.22;;;;;;;12.72;41.04;98366.62;4381237;32;32946;-91
2021/01/30 03:48:37;;;;;;;52.10;49.00;;;;;;;13.12;40.58;98358.06;4381662;32;34636;-93
2021/01/30 03:51:06;;;;;;;52.65;49.42;;;;;;;12.27;42.10;98364.13;4382254;32;34599;-91
2021/01/30 03:53:34;;;;;;;53.15;50.05;;;;;;;12.42;41.86;98366.72;4382702;32;32706;-92
2021/01/30 03:56:01;;;;;;;52.72;49.47;;;;;;;12.69;41.10;98372.88;4381826;32;35133;-92
2021/01/30 03:58:30;;;;;;;53.38;50.28;;;;;;;12.80;40.55;98369.63;4394198;32;33757;-93
2021/01/30 04:00:59;;;;;;;53.65;50.30;;;;;;;11.86;42.72;98375.19;4392972;32;35509;-91
2021/01/30 04:03:27;;;;;;;53.00;49.60;;;;;;;10.99;44.85;98380.00;4380730;32;35232;-92
2021/01/30 04:05:55;;;;;;;52.40;49.20;;;;;;;10.17;47.15;98380.81;4393156;32;34818;-91
2021/01/30 04:08:22;;;;;;;53.33;50.12;;;;;;;9.96;47.27;98380.16;4393444;32;35075;-91
2021/01/30 04:10:50;;;;;;;52.47;49.35;;;;;;;10.98;44.90;98380.94;4368785;32;32947;-91
2021/01/30 04:13:19;;;;;;;52.72;49.63;;;;;;;11.73;43.46;98384.66;4393217;32;34720;-91
2021/01/30 04:15:47;;;;;;;52.62;49.42;;;;;;;12.18;42.33;98380.34;4380748;32;34356;-92
2021/01/30 04:18:15;;;;;;;53.95;50.75;;;;;;;12.33;41.77;98378.56;4380810;32;34346;-92
2021/01/30 04:20:42;;;;;;;51.60;48.70;;;;;;;12.47;41.23;98375.97;4393356;32;33492;-91
2021/01/30 04:23:10;;;;;;;53.25;50.05;;;;;;;12.94;40.32;98373.97;4368030;32;34460;-91
2021/01/30 04:25:40;;;;;;;52.17;49.08;;;;;;;12.23;41.96;98378.31;4380889;32;34516;-92
2021/01/30 04:28:08;;;;;;;52.62;49.53;;;;;;;12.60;41.27;98380.44;4380528;32;34117;-93
2021/01/30 04:30:35;;;;;;;53.47;50.38;;;;;;;12.65;41.07;98379.22;4380427;32;34185;-92
2021/01/30 04:33:06;;;;;;;51.22;48.40;;;;;;;13.12;40.52;98369.37;4380660;32;33955;-91
2021/01/30 04:35:35;;;;;;;52.42;49.45;;;;;;;13.30;40.66;98369.97;4380323;32;34854;-93
2021/01/30 04:38:04;;;;;;;52.55;49.55;;;;;;;13.00;41.70;98377.97;4380541;32;34886;-92
2021/01/30 04:40:43;;;;;;;52.35;49.45;;;;;;;13.32;40.95;98368.09;4381547;32;34455;-92
2021/01/30 04:43:11;;;;;;;52.72;49.65;;;;;;;13.98;39.43;98378.66;4384155;32;33023;-90
2021/01/30 04:46:02;;;;;;;52.50;49.50;;;;;;;14.25;38.60;98377.75;4413860;32;35487;-90
2021/01/30 04:48:55;;;;;;;51.00;48.10;;;;;;;14.12;38.89;98376.91;4386232;32;34554;-93
2021/01/30 04:51:46;;;;;;;52.25;49.15;;;;;;;14.26;38.44;98368.97;4392919;32;33953;-92
2021/01/30 04:54:29;;;;;;;52.08;49.08;;;;;;;14.46;37.61;98377.25;4380383;32;33848;-92
2021/01/30 04:57:27;;;;;;;51.90;48.90;;;;;;;14.53;36.84;98376.72;4405481;32;33356;-91
2021/01/30 05:00:28;;;;;;;51.00;48.10;;;;;;;14.45;36.68;98372.94;4392565;32;34530;-92
2021/01/30 05:03:14;;;;;;;52.88;49.88;;;;;;;14.15;37.76;98372.31;4377724;32;34774;-91
2021/01/30 05:05:44;;;;;;;51.03;48.13;;;;;;;13.90;38.60;98380.97;4405093;32;35075;-92
2021/01/30 05:08:46;;;;;;;51.10;48.15;;;;;;;14.27;38.34;98375.88;4379918;32;34314;-91
2021/01/30 05:11:21;;;;;;;51.05;48.25;;;;;;;14.69;36.72;98371.28;4367002;32;34535;-92
2021/01/30 05:14:02;;;;;;;52.85;49.88;;;;;;;14.51;37.27;98369.91;4392718;32;32861;-92
2021/01/30 05:16:56;;;;;;;51.83;48.83;;;;;;;14.70;36.54;98377.34;4380253;32;34352;-91
2021/01/30 05:19:25;;;;;;;51.15;48.35;;;;;;;14.59;36.52;98379.88;4357052;32;34444;-92
2021/01/30 05:21:58;;;;;;;52.03;49.00;;;;;;;14.61;36.19;98375.34;4367685;32;34913;-91
2021/01/30 05:24:27;;;;;;;51.75;48.85;;;;;;;14.53;36.70;98376.72;4380089;32;33366;-91
2021/01/30 05:27:23;;;;;;;51.78;48.87;;;;;;;14.58;36.92;98384.25;4392642;32;34051;-91
2021/01/30 05:30:03;;;;;;;53.58;50.30;;;;;;;13.93;38.93;98388.59;4404679;32;34786;-91
2021/01/30 05:33:12;;;;;;;52.53;49.53;;;;;;;13.66;40.05;98389.50;4379774;32;34792;-91
2021/01/30 05:35:53;;;;;;;51.28;48.38;;;;;;;14.20;39.09;98385.09;4378430;32;33736;-93
2021/01/30 05:39:01;;;;;;;51.58;48.67;;;;;;;14.48;38.70;98383.22;4379788;32;33775;-94
2021/01/30 05:42:08;;;;;;;52.15;49.25;;;;;;;14.46;38.54;98380.69;4379835;32;35125;-93
2021/01/30 05:44:35;;;;;;;51.97;49.08;;;;;;;14.74;37.70;98385.84;4379675;32;34125;-92
2021/01/30 05:47:04;;;;;;;51.78;48.90;;;;;;;14.60;37.84;98397.25;4392183;32;34417;-93
2021/01/30 05:49:35;;;;;;;51.67;48.72;;;;;;;14.53;37.83;98399.44;4392098;32;35085;-93
2021/01/30 05:52:06;;;;;;;51.63;48.83;;;;;;;14.67;37.84;98409.84;4379812;32;34220;-92
2021/01/30 05:54:34;;;;;;;51.33;48.42;;;;;;;14.44;38.55;98413.19;4391938;32;34091;-93
2021/01/30 05:57:02;;;;;;;51.10;48.20;;;;;;;14.29;39.00;98408.06;4367522;32;33773;-93
2021/01/30 05:59:31;;;;;;;51.42;48.53;;;;;;;14.02;39.64;98415.97;4379746;32;34540;-92
2021/01/30 06:02:10;;;;;;;52.42;49.45;;;;;;;13.57;40.69;98421.50;4379399;32;34082;-92
2021/01/30 06:04:39;;;;;;;52.45;49.35;;;;;;;13.22;42.15;98416.69;4392156;32;33672;-92
2021/01/30 06:07:22;;;;;;;52.10;48.92;;;;;;;14.02;40.57;98415.97;4379447;32;33997;-93
2021/01/30 06:09:52;;;;;;;52.40;49.42;;;;;;;14.65;39.01;98426.62;4391533;32;34800;-93
2021/01/30 06:12:25;;;;;;;51.13;48.10;;;;;;;14.37;39.47;98423.25;4391631;32;34470;-93
2021/01/30 06:14:56;;;;;;;51.03;48.15;;;;;;;14.59;39.30;98424.41;4391732;32;35035;-92
2021/01/30 06:17:24;;;;;;;52.00;49.00;;;;;;;14.74;38.93;98423.37;4391794;32;32448;-93
2021/01/30 06:20:10;;;;;;;52.15;49.15;;;;;;;14.63;39.15;98412.78;4391596;32;34166;-92
2021/01/30 06:22:40;;;;;;;52.03;49.15;;;;;;;14.95;38.71;98414.97;4379195;32;35325;-92
2021/01/30 06:25:30;;;;;;;51.37;48.47;;;;;;;15.23;38.08;98415.66;4379241;32;34300;-93
2021/01/30 06:28:16;;;;;;;51.28;48.38;;;;;;;15.07;38.67;98416.72;4366950;32;33798;-92
2021/01/30 06:30:45;;;;;;;52.30;49.20;;;;;;;14.66;39.50;98421.28;4379454;32;33262;-92
2021/01/30 06:33:34;;;;;;;51.63;48.63;;;;;;;14.73;39.37;98420.88;4391517;32;34431;-92
2021/01/30 06:36:20;;;;;;;52.38;49.30;;;;;;;14.59;39.93;98419.19;4392517;32;34196;-93
2021/01/30 06:38:58;;;;;;;51.47;48.58;;;;;;;15.01;38.96;98427.62;4379119;32;35182;-92
2021/01/30 06:41:28;;;;;;;51.40;48.55;;;;;;;15.05;39.06;98423.03;4380250;32;34347;-94
2021/01/30 06:44:20;;;;;;;51.00;48.17;;;;;;;14.06;40.82;98429.72;4381460;32;33839;-93
2021/01/30 06:47:00;;;;;;;51.72;48.63;;;;;;;14.83;39.36;98429.78;4405840;32;34476;-92
2021/01/30 06:49:43;;;;;;;52.67;49.67;;;;;;;15.00;38.94;98429.44;4393625;32;33687;-93
2021/01/30 06:52:21;;;;;;;52.13;48.92;;;;;;;15.07;38.87;98432.47;4394514;32;34331;-92
2021/01/30 06:55:05;;;;;;;50.53;47.62;;;;;;;14.94;39.02;98439.50;4381712;32;34508;-92
2021/01/30 06:57:35;;;;;;;52.67;49.58;;;;;;;15.28;38.45;98447.66;4407119;32;34200;-93
2021/01/30 07:00:22;;;;;;;52.67;49.70;;;;;;;15.40;38.41;98449.38;4381375;32;35300;-93
2021/01/30 07:03:14;;;;;;;51.88;48.97;;;;;;;15.44;38.47;98439.53;4393241;32;35648;-92
2021/01/30 07:05:48;;;;;;;51.92;48.90;;;;;;;15.25;38.98;98448.69;4381230;32;35611;-93
2021/01/30 07:08:16;;;;;;;51.13;48.22;;;;;;;15.83;37.88;98443.69;4405837;32;34200;-93
2021/01/30 07:11:06;;;;;;;51.13;48.22;;;;;;;16.10;37.28;98434.72;4393685;32;33609;-92
2021/01/30 07:13:59;;;;;;;51.35;48.55;;;;;;;16.07;37.38;98440.19;4393818;32;34629;-92
2021/01/30 07:16:40;;;;;;;51.63;48.72;;;;;;;16.12;36.99;98451.19;4393899;32;34419;-92
2021/01/30 07:19:29;;;;;;;52.03;49.13;;;;;;;15.65;38.21;98448.47;4394193;32;34363;-93
2021/01/30 07:22:10;;;;;;;50.97;48.17;;;;;;;15.72;38.05;98450.66;4384457;32;32777;-92
2021/01/30 07:24:47;;;;;;;51.13;48.28;;;;;;;16.03;37.45;98441.38;4384445;32;34660;-93
2021/01/30 07:27:22;;;;;;;50.67;47.88;;;;;;;15.46;38.66;98445.47;4382001;32;33300;-93
2021/01/30 07:30:00;;;;;;;50.63;47.92;;;;;;;15.76;37.97;98438.97;4393410;32;33097;-93
2021/01/30 07:32:36;;;;;;;51.50;48.60;;;;;;;15.67;38.12;98441.28;4393188;32;34885;-92
2021/01/30 07:35:16;;;;;;;49.83;47.08;;;;;;;15.95;37.36;98439.31;4393469;32;34084;-93
2021/01/30 07:38:13;;;;;;;51.22;48.42;;;;;;;15.94;37.18;98436.78;4382715;32;34338;-91
2021/01/30 07:41:02;;;;;;;50.83;47.92;;;;;;;16.10;36.87;98431.25;4392839;32;34838;-91
2021/01/30 07:43:36;;;;;;;53.53;50.60;;;;;;;16.43;36.24;98427.03;4393292;32;34014;-92
2021/01/30 07:46:14;;;;;;;52.30;49.10;;;;;;;16.30;36.60;98435.84;4380395;32;34056;-92
2021/01/30 07:48:56;;;;;;;52.10;49.10;;;;;;;16.51;36.72;98430.75;4392597;32;34799;-93
2021/01/30 07:51:52;;;;;;;52.53;49.63;;;;;;;17.52;34.68;98425.56;4392197;32;34622;-93
2021/01/30 07:54:20;;;;;;;52.90;49.72;;;;;;;17.55;34.73;98429.75;4392420;32;33830;-92
2021/01/30 07:57:05;;;;;;;51.75;48.85;;;;;;;17.93;34.18;98433.75;4380171;32;34318;-92
2021/01/30 07:59:52;;;;;;;51.80;48.90;;;;;;;17.93;34.41;98431.94;4392703;32;35495;-92
2021/01/30 08:02:48;;;;;;;51.55;48.50;;;;;;;18.10;34.17;98427.91;4392665;32;34243;-93
2021/01/30 08:05:36;;;;;;;52.53;49.47;;;;;;;18.19;33.89;98429.78;4380681;32;33754;-92
2021/01/30 08:08:28;;;;;;;53.15;50.03;;;;;;;17.96;34.58;98420.31;4405604;32;34703;-92
2021/01/30 08:11:05;;;;;;;53.00;50.00;;;;;;;18.19;34.48;98413.13;4404896;32;33761;-93
2021/01/30 08:13:50;;;;;;;53.05;50.15;;;;;;;17.94;35.04;98415.16;4392801;32;34220;-92
2021/01/30 08:16:40;;;;;;;54.08;50.85;;;;;;;17.93;35.17;98397.69;4392636;32;32383;-91
2021/01/30 08:19:13;;;;;;;53.80;50.63;;;;;;;18.05;35.01;98401.09;4393043;32;34921;-90
2021/01/30 08:21:46;;;;;;;53.30;50.10;;;;;;;18.21;34.94;98394.56;4392742;32;33028;-90
2021/01/30 08:24:19;;;;;;;52.83;49.70;;;;;;;18.16;35.05;98397.56;4392556;32;34985;-91
2021/01/30 08:27:01;;;;;;;52.75;49.80;;;;;;;17.92;35.64;98401.31;4380234;32;33688;-91
2021/01/30 08:29:35;;;;;;;54.40;51.25;;;;;;;17.27;36.75;98403.88;4405329;32;34179;-93
2021/01/30 08:32:25;;;;;;;53.70;50.60;;;;;;;17.25;37.64;98424.19;4355778;32;35202;-90
2021/01/30 08:35:25;;;;;;;53.45;50.30;;;;;;;17.76;36.65;98424.53;4405612;32;33367;-92
2021/01/30 08:38:04;;;;;;;53.78;50.50;;;;;;;17.03;38.08;98414.53;4367231;32;34021;-92
2021/01/30 08:40:52;;;;;;;53.33;50.03;;;;;;;16.51;39.43;98424.66;4391530;32;33992;-91
2021/01/30 08:43:24;;;;;;;54.75;51.22;;;;;;;17.33;37.84;98431.50;4404926;32;34014;-91
2021/01/30 08:45:51;;;;;;;55.92;52.42;;;;;;;17.74;37.00;98432.59;4392681;32;34630;-90
2021/01/30 08:48:28;;;;;;;55.17;51.88;;;;;;;17.67;37.38;98437.50;4380047;32;33969;-91
2021/01/30 08:50:57;;;;;;;52.67;49.67;;;;;;;17.74;37.22;98434.41;4392351;32;34510;-90
2021/01/30 08:53:24;;;;;;;54.28;50.97;;;;;;;17.21;37.87;98433.31;4392390;32;33319;-91
2021/01/30 08:55:52;;;;;;;53.63;50.38;;;;;;;17.41;37.48;98428.25;4392153;32;34464;-91
2021/01/30 08:58:38;;;;;;;55.05;51.72;;;;;;;17.15;39.12;98431.16;4392135;32;34615;-92
2021/01/30 09:01:33;;;;;;;54.63;51.17;;;;;;;17.42;38.43;98419.41;4392109;32;34164;-92
2021/01/30 09:04:03;;;;;;;54.38;50.97;;;;;;;17.57;37.96;98425.22;4390861;32;34509;-92
2021/01/30 09:06:39;;;;;;;55.15;51.65;;;;;;;18.05;36.79;98422.19;4380068;32;34140;-91
2021/01/30 09:09:22;;;;;;;55.80;51.97;;;;;;;18.30;36.31;98426.25;4394451;32;33926;-88
2021/01/30 09:11:56;;;;;;;55.75;52.25;;;;;;;17.25;38.92;98432.09;4383295;32;35165;-92
2021/01/30 09:14:27;;;;;;;54.10;50.95;;;;;;;17.45;38.28;98425.22;4383796;32;34505;-92
2021/01/30 09:16:58;;;;;;;;;;;;;;;17.89;37.27;98427.03;4405827;32;34179;-92
2021/01/30 09:19:52;;;;;;;53.33;50.20;;;;;;;17.24;38.90;98432.22;4392275;32;32391;-91
2021/01/30 09:22:35;;;;;;;54.20;50.90;;;;;;;18.20;36.72;98425.31;4392270;32;34531;-93
2021/01/30 09:25:18;;;;;;;53.85;50.75;;;;;;;18.08;36.82;98429.84;4379549;32;34514;-92
2021/01/30 09:28:02;;;;;;;53.67;50.38;;;;;;;18.27;36.11;98434.41;4391877;32;35292;-90
2021/01/30 09:30:36;;;;;;;54.50;51.22;;;;;;;18.78;35.21;98435.38;4379304;32;33788;-90
2021/01/30 09:33:37;;;;;;;55.58;52.17;;;;;;;18.53;36.05;98439.28;4391617;32;34533;-90
2021/01/30 09:36:15;;;;;;;53.53;50.33;;;;;;;18.27;36.62;98430.91;4376963;32;34376;-92
2021/01/30 09:38:48;;;;;;;50.90;48.10;;;;;;;17.59;37.51;98437.31;4391810;32;35409;-90
2021/01/30 09:41:31;;;;;;;50.42;47.70;;;;;;;16.74;36.45;98437.81;4379420;32;34451;-90
2021/01/30 09:44:04;;;;;;;51.25;48.45;;;;;;;16.78;36.39;98428.72;4391343;32;33977;-93
2021/01/30 09:46:53;;;;;;;51.33;48.38;;;;;;;17.96;34.41;98429.06;4379346;32;34295;-92
2021/01/30 09:49:32;;;;;;;51.47;48.67;;;;;;;18.03;33.60;98435.50;4379364;32;34759;-92
2021/01/30 09:52:00;;;;;;;51.55;48.75;;;;;;;16.31;36.34;98428.78;4379112;32;34976;-92
2021/01/30 09:54:28;;;;;;;51.20;48.40;;;;;;;16.98;34.78;98430.69;4379252;32;34749;-91
2021/01/30 09:57:06;;;;;;;51.47;48.67;;;;;;;17.29;33.52;98430.06;4379607;32;34488;-92
2021/01/30 09:59:34;;;;;;;51.03;48.25;;;;;;;16.27;35.19;98433.44;4391493;32;33942;-91
2021/01/30 10:02:19;;;;;;;52.83;49.63;;;;;;;16.50;35.04;98423.81;4378972;32;35347;-90
2021/01/30 10:05:04;;;;;;;51.65;48.85;;;;;;;16.49;34.47;98424.78;4390964;32;34801;-91
2021/01/30 10:07:33;;;;;;;51.45;48.65;;;;;;;17.08;33.91;98424.69;4379015;32;34737;-91
2021/01/30 10:10:18;;;;;;;50.67;47.97;;;;;;;15.39;36.29;98423.25;4391480;32;34441;-91
2021/01/30 10:12:45;;;;;;;51.35;48.55;;;;;;;16.34;33.36;98413.63;4391233;32;34633;-91
2021/01/30 10:15:13;;;;;;;50.92;48.13;;;;;;;16.24;34.05;98423.16;4393028;32;33488;-90
2021/01/30 10:17:42;;;;;;;50.67;47.97;;;;;;;15.61;35.27;98422.53;4393517;32;35070;-92
2021/01/30 10:20:15;;;;;;;50.70;47.97;;;;;;;16.77;32.93;98419.19;4393851;32;33427;-91
2021/01/30 10:22:50;;;;;;;51.05;48.25;;;;;;;16.69;33.23;98420.59;4393982;32;33402;-91
2021/01/30 10:25:25;;;;;;;51.47;48.67;;;;;;;17.34;32.48;98425.28;4393923;32;33739;-92
2021/01/30 10:28:11;;;;;;;51.10;48.33;;;;;;;16.23;33.33;98431.16;4381351;32;34759;-92
2021/01/30 10:30:40;;;;;;;51.63;48.83;;;;;;;16.14;33.75;98422.16;4381033;32;33739;-90
2021/01/30 10:33:12;;;;;;;50.78;48.08;;;;;;;16.52;33.22;98421.06;4381123;32;34006;-91
2021/01/30 10:35:46;;;;;;;50.85;48.15;;;;;;;16.33;33.99;98422.47;4368817;32;34200;-90
2021/01/30 10:38:20;;;;;;;51.83;48.92;;;;;;;17.03;32.60;98418.00;4381593;32;35533;-91
2021/01/30 10:40:54;;;;;;;51.37;48.50;;;;;;;16.94;33.19;98404.72;4393423;32;35437;-91
2021/01/30 10:43:30;;;;;;;51.47;48.67;;;;;;;17.59;31.76;98412.75;4381044;32;34943;-91
2021/01/30 10:46:01;;;;;;;51.53;48.60;;;;;;;16.93;33.39;98413.59;4380761;32;33070;-90
2021/01/30 10:48:33;;;;;;;52.33;49.45;;;;;;;16.43;34.17;98417.34;4394020;32;34431;-90
2021/01/30 10:51:20;;;;;;;51.53;48.63;;;;;;;15.29;36.06;98409.94;4381358;32;34042;-91
2021/01/30 10:53:48;;;;;;;51.78;48.87;;;;;;;16.35;34.14;98406.56;4393559;32;35015;-92
2021/01/30 10:56:19;;;;;;;51.75;48.95;;;;;;;17.42;32.42;98393.91;4381077;32;35172;-90
2021/01/30 10:58:52;;;;;;;51.30;48.50;;;;;;;16.60;33.09;98389.75;4405786;32;35001;-90
2021/01/30 11:01:20;;;;;;;51.88;49.08;;;;;;;17.73;31.87;98386.13;4393556;32;34227;-91
2021/01/30 11:03:59;;;;;;;51.90;49.00;;;;;;;18.32;30.56;98386.56;4393246;32;33918;-91
2021/01/30 11:06:30;;;;;;;51.67;48.87;;;;;;;17.05;31.87;98377.59;4394307;32;33976;-92
2021/01/30 11:09:22;;;;;;;51.70;48.80;;;;;;;17.61;30.29;98382.69;4405979;32;34306;-91
2021/01/30 11:12:07;;;;;;;51.78;48.97;;;;;;;18.25;29.34;98372.25;4381690;32;32678;-92
2021/01/30 11:14:35;;;;;;;51.88;49.08;;;;;;;17.24;30.93;98376.94;4406061;32;34931;-91
2021/01/30 11:17:05;;;;;;;51.13;48.38;;;;;;;17.78;29.67;98369.97;4381122;32;35935;-91
2021/01/30 11:19:32;;;;;;;52.45;49.65;;;;;;;17.79;30.06;98374.25;4393273;32;35262;-92
2021/01/30 11:22:06;;;;;;;51.17;48.38;;;;;;;17.44;30.06;98362.19;4393150;32;34435;-91
2021/01/30 11:24:49;;;;;;;52.13;49.30;;;;;;;16.64;31.37;98364.06;4393050;32;35596;-92
2021/01/30 11:27:35;;;;;;;52.45;49.55;;;;;;;16.92;29.81;98354.87;4381205;32;35311;-91
2021/01/30 11:30:18;;;;;;;50.28;47.58;;;;;;;17.30;29.38;98337.00;4393158;32;34593;-92
2021/01/30 11:33:03;;;;;;;50.67;47.95;;;;;;;17.59;29.34;98346.91;4405069;32;34272;-92
2021/01/30 11:35:33;;;;;;;50.92;48.13;;;;;;;17.66;29.01;98338.38;4393280;32;34206;-92
2021/01/30 11:38:22;;;;;;;51.00;48.25;;;;;;;18.86;27.90;98342.38;4393392;32;34118;-91
2021/01/30 11:40:53;;;;;;;50.85;48.15;;;;;;;18.19;27.77;98318.25;4393577;32;34725;-92
2021/01/30 11:43:23;;;;;;;50.92;48.22;;;;;;;18.93;27.18;98319.81;4380916;32;34434;-91
2021/01/30 11:45:53;;;;;;;50.50;47.80;;;;;;;17.69;28.45;98322.31;4381007;32;34172;-92
2021/01/30 11:48:23;;;;;;;50.55;47.88;;;;;;;17.89;27.17;98321.63;4381582;32;34823;-92
2021/01/30 11:50:51;;;;;;;50.83;48.13;;;;;;;18.10;27.03;98324.28;4395346;32;34094;-91
2021/01/30 11:53:23;;;;;;;51.00;48.30;;;;;;;18.59;26.55;98314.81;4389087;32;34458;-90
2021/01/30 11:55:51;;;;;;;50.58;47.88;;;;;;;19.10;25.86;98317.47;4402774;32;33842;-89
2021/01/30 11:58:19;;;;;;;49.97;47.28;;;;;;;18.19;27.74;98310.34;4384557;32;34517;-91